createdAt,value
2022-08-14T00:01:54.670Z,100160.27
2022-08-14T00:04:34.471Z,100155.95
2022-08-14T00:07:06.053Z,100151.93
2022-08-14T00:09:56.242Z,100149.80
2022-08-14T00:12:24.305Z,100141.60
2022-08-14T00:14:55.264Z,100140.23
2022-08-14T00:17:23.839Z,100140.16
2022-08-14T00:19:51.704Z,100134.59
2022-08-14T00:22:44.539Z,100134.67
2022-08-14T00:25:07.627Z,100129.65
2022-08-14T00:27:37.873Z,100131.81
2022-08-14T00:30:10.717Z,100129.06
2022-08-14T00:32:55.820Z,100126.82
2022-08-14T00:36:34.376Z,100121.77
2022-08-14T00:38:10.341Z,100121.47
2022-08-14T00:40:37.474Z,100120.02
2022-08-14T00:43:04.463Z,100116.19
2022-08-14T00:45:31.315Z,100119.59
2022-08-14T00:47:57.930Z,100116.23
2022-08-14T00:50:30.696Z,100116.65
2022-08-14T00:52:59.664Z,100113.13
2022-08-14T00:55:28.024Z,100112.24
2022-08-14T00:58:18.476Z,100112.91
2022-08-14T01:00:51.317Z,100111.09
2022-08-14T01:03:27.319Z,100104.17
2022-08-14T01:06:00.621Z,100105.79
2022-08-14T01:08:51.935Z,100109.08
2022-08-14T01:11:18.871Z,100099.89
2022-08-14T01:13:50.769Z,100096.80
2022-08-14T01:16:28.050Z,100089.21
2022-08-14T01:19:19.841Z,100088.89
2022-08-14T01:21:52.854Z,100096.98
2022-08-14T01:24:24.694Z,100093.55
2022-08-14T01:26:59.265Z,100090.75
2022-08-14T01:29:58.356Z,100086.72
2022-08-14T01:32:24.233Z,100081.11
2022-08-14T01:35:17.851Z,100080.11
2022-08-14T01:37:46.782Z,100088.42
2022-08-14T01:40:25.788Z,100093.34
2022-08-14T01:43:13.920Z,100090.44
2022-08-14T01:45:42.095Z,100095.41
2022-08-14T01:48:13.332Z,100095.96
2022-08-14T01:50:42.415Z,100101.74
2022-08-14T01:53:09.529Z,100104.64
2022-08-14T01:55:38.933Z,100106.09
2022-08-14T01:58:19.746Z,100101.69
2022-08-14T02:00:53.620Z,100102.75
2022-08-14T02:03:22.970Z,100104.23
2022-08-14T02:05:49.575Z,100110.16
2022-08-14T02:08:16.537Z,100113.48
2022-08-14T02:11:13.255Z,100113.14
2022-08-14T02:13:43.532Z,100114.86
2022-08-14T02:16:22.427Z,100111.38
2022-08-14T02:18:49.619Z,100107.96
2022-08-14T02:21:17.992Z,100101.41
2022-08-14T02:23:48.482Z,100098.09
2022-08-14T02:26:29.395Z,100096.91
2022-08-14T02:29:07.793Z,100092.17
2022-08-14T02:31:44.419Z,100083.45
2022-08-14T02:34:28.695Z,100086.33
2022-08-14T02:37:09.389Z,100082.69
2022-08-14T02:39:43.805Z,100076.23
2022-08-14T02:42:37.215Z,100081.55
2022-08-14T02:45:05.689Z,100080.11
2022-08-14T02:47:33.831Z,100077.05
2022-08-14T02:50:06.404Z,100075.32
2022-08-14T02:52:57.700Z,100075.52
2022-08-14T02:55:20.526Z,100078.31
2022-08-14T02:57:58.206Z,100074.95
2022-08-14T03:00:32.599Z,100074.05
2022-08-14T03:03:01.350Z,100074.02
2022-08-14T03:05:35.797Z,100074.79
2022-08-14T03:08:21.585Z,100071.16
2022-08-14T03:10:50.128Z,100064.27
2022-08-14T03:13:21.410Z,100060.77
2022-08-14T03:15:56.200Z,100061.52
2022-08-14T03:18:31.663Z,100059.85
2022-08-14T03:21:07.438Z,100060.77
2022-08-14T03:23:37.866Z,100059.44
2022-08-14T03:26:12.957Z,100058.64
2022-08-14T03:28:49.138Z,100057.70
2022-08-14T03:31:21.650Z,100055.38
2022-08-14T03:33:51.803Z,100052.73
2022-08-14T03:37:37.849Z,100051.68
2022-08-14T03:39:19.004Z,100055.41
2022-08-14T03:41:55.638Z,100053.51
2022-08-14T03:45:19.031Z,100047.16
2022-08-14T03:47:11.958Z,100049.93
2022-08-14T03:49:42.326Z,100049.63
2022-08-14T03:52:27.949Z,100048.86
2022-08-14T03:55:00.152Z,100044.84
2022-08-14T03:57:31.970Z,100042.50
2022-08-14T04:00:01.959Z,100044.34
2022-08-14T04:02:33.187Z,100043.58
2022-08-14T04:05:12.797Z,100043.59
2022-08-14T04:07:49.467Z,100050.67
2022-08-14T04:10:17.565Z,100055.97
2022-08-14T04:13:03.624Z,100059.23
2022-08-14T04:15:55.638Z,100061.30
2022-08-14T04:18:20.017Z,100053.23
2022-08-14T04:20:54.269Z,100053.99
2022-08-14T04:23:29.615Z,100058.73
2022-08-14T04:26:03.615Z,100057.56
2022-08-14T04:29:07.156Z,100058.94
2022-08-14T04:32:58.555Z,100067.98
2022-08-14T04:34:07.879Z,100070.86
2022-08-14T04:36:55.003Z,100070.08
2022-08-14T04:39:46.530Z,100075.77
2022-08-14T04:42:32.622Z,100079.75
2022-08-14T04:45:00.611Z,100078.52
2022-08-14T04:47:46.767Z,100076.13
2022-08-14T04:50:33.709Z,100074.13
2022-08-14T04:53:07.897Z,100075.28
2022-08-14T04:55:44.635Z,100078.58
2022-08-14T04:58:21.618Z,100075.23
2022-08-14T05:01:12.694Z,100079.77
2022-08-14T05:03:46.722Z,100080.33
2022-08-14T05:06:37.359Z,100077.55
2022-08-14T05:09:00.738Z,100081.21
2022-08-14T05:11:29.087Z,100082.96
2022-08-14T05:14:34.362Z,100077.77
2022-08-14T05:16:43.638Z,100073.05
2022-08-14T05:19:17.580Z,100072.13
2022-08-14T05:21:56.141Z,100074.55
2022-08-14T05:24:25.885Z,100074.21
2022-08-14T05:26:53.274Z,100067.31
2022-08-14T05:29:20.283Z,100065.70
2022-08-14T05:31:47.490Z,100070.27
2022-08-14T05:34:14.091Z,100066.72
2022-08-14T05:36:42.756Z,100072.25
2022-08-14T05:39:17.491Z,100073.70
2022-08-14T05:41:53.479Z,100070.38
2022-08-14T05:44:20.655Z,100066.36
2022-08-14T05:46:47.590Z,100070.08
2022-08-14T05:49:14.165Z,100075.05
2022-08-14T05:51:41.284Z,100071.35
2022-08-14T05:54:13.692Z,100063.22
2022-08-14T05:56:53.925Z,100064.97
2022-08-14T05:59:30.158Z,100060.29
2022-08-14T06:02:06.464Z,100063.87
2022-08-14T06:04:32.982Z,100060.20
2022-08-14T06:06:59.700Z,100057.05
2022-08-14T06:09:26.216Z,100061.52
2022-08-14T06:11:52.958Z,100058.93
2022-08-14T06:14:23.848Z,100061.56
2022-08-14T06:16:52.021Z,100058.05
2022-08-14T06:19:23.207Z,100056.55
2022-08-14T06:21:58.077Z,100060.92
2022-08-14T06:24:26.088Z,100063.05
2022-08-14T06:26:56.915Z,100063.11
2022-08-14T06:29:32.101Z,100057.21
2022-08-14T06:32:37.717Z,100061.45
2022-08-14T06:35:11.405Z,100061.50
2022-08-14T06:37:44.859Z,100062.77
2022-08-14T06:40:27.251Z,100069.75
2022-08-14T06:43:05.701Z,100066.49
2022-08-14T06:45:36.141Z,100072.02
2022-08-14T06:48:06.145Z,100070.23
2022-08-14T06:50:39.300Z,100067.11
2022-08-14T06:53:06.931Z,100066.77
2022-08-14T06:55:33.983Z,100068.13
2022-08-14T06:58:04.304Z,100067.55
2022-08-14T07:00:32.566Z,100068.18
2022-08-14T07:03:19.453Z,100073.10
2022-08-14T07:05:55.664Z,100071.74
2022-08-14T07:08:29.542Z,100069.77
2022-08-14T07:11:03.385Z,100067.77
2022-08-14T07:13:31.068Z,100069.47
2022-08-14T07:16:00.545Z,100068.98
2022-08-14T07:18:33.129Z,100071.14
2022-08-14T07:21:02.071Z,100074.27
2022-08-14T07:23:31.163Z,100081.60
2022-08-14T07:25:59.882Z,100080.36
2022-08-14T07:28:34.145Z,100081.60
2022-08-14T07:31:07.884Z,100080.88
2022-08-14T07:33:45.567Z,100078.23
2022-08-14T07:36:30.127Z,100079.68
2022-08-14T07:39:03.254Z,100078.05
2022-08-14T07:41:39.901Z,100075.18
2022-08-14T07:44:29.703Z,100074.92
2022-08-14T07:46:58.043Z,100075.82
2022-08-14T07:49:25.582Z,100069.22
2022-08-14T07:51:52.476Z,100070.00
2022-08-14T07:54:23.135Z,100069.40
2022-08-14T07:57:06.312Z,100067.10
2022-08-14T07:59:44.126Z,100070.77
2022-08-14T08:02:18.446Z,100069.45
2022-08-14T08:04:55.084Z,100068.80
2022-08-14T08:07:30.608Z,100069.58
2022-08-14T08:10:01.070Z,100072.83
2022-08-14T08:12:38.659Z,100071.82
2022-08-14T08:15:07.759Z,100071.67
2022-08-14T08:17:38.961Z,100068.31
2022-08-14T08:20:19.845Z,100074.19
2022-08-14T08:22:56.376Z,100070.06
2022-08-14T08:25:30.686Z,100073.95
2022-08-14T08:28:25.162Z,100072.35
2022-08-14T08:31:00.199Z,100074.27
2022-08-14T08:33:32.123Z,100068.30
2022-08-14T08:36:03.356Z,100068.95
2022-08-14T08:39:15.728Z,100072.05
2022-08-14T08:41:17.175Z,100068.80
2022-08-14T08:43:46.280Z,100070.10
2022-08-14T08:46:23.472Z,100069.37
2022-08-14T08:51:30.978Z,100068.80
2022-08-14T08:54:11.845Z,100067.30
2022-08-14T08:56:47.901Z,100070.94
2022-08-14T08:59:31.083Z,100071.16
2022-08-14T09:02:10.167Z,100069.45
2022-08-14T09:04:53.629Z,100071.61
2022-08-14T09:07:27.328Z,100069.88
2022-08-14T09:09:58.632Z,100066.11
2022-08-14T09:12:33.219Z,100065.56
2022-08-14T09:15:04.323Z,100061.27
2022-08-14T09:17:41.205Z,100062.38
2022-08-14T09:20:25.898Z,100067.38
2022-08-14T09:23:01.508Z,100065.28
2022-08-14T09:26:01.421Z,100061.92
2022-08-14T09:28:28.045Z,100059.99
2022-08-14T09:30:57.664Z,100059.65
2022-08-14T09:33:56.823Z,100055.73
2022-08-14T09:36:50.111Z,100054.86
2022-08-14T09:39:46.245Z,100054.61
2022-08-14T09:42:50.023Z,100051.98
2022-08-14T09:45:23.555Z,100054.92
2022-08-14T09:47:55.775Z,100050.91
2022-08-14T09:50:44.217Z,100053.06
2022-08-14T09:53:18.466Z,100048.88
2022-08-14T09:55:58.957Z,100046.44
2022-08-14T09:58:43.410Z,100043.23
2022-08-14T10:01:18.383Z,100042.30
2022-08-14T10:03:55.222Z,100040.98
2022-08-14T10:06:28.287Z,100040.23
2022-08-14T10:09:04.500Z,100042.23
2022-08-14T10:11:35.572Z,100036.84
2022-08-14T10:14:34.743Z,100034.16
2022-08-14T10:17:06.469Z,100029.96
2022-08-14T10:19:35.796Z,100030.23
2022-08-14T10:23:12.677Z,100027.36
2022-08-14T10:24:57.486Z,100024.12
2022-08-14T10:27:28.128Z,100026.52
2022-08-14T10:30:00.290Z,100025.95
2022-08-14T10:32:39.956Z,100019.96
2022-08-14T10:35:14.459Z,100019.76
2022-08-14T10:37:49.935Z,100015.89
2022-08-14T10:40:38.265Z,100019.02
2022-08-14T10:43:25.037Z,100015.09
2022-08-14T10:46:04.015Z,100014.77
2022-08-14T10:48:56.344Z,100011.95
2022-08-14T10:51:30.283Z,100017.14
2022-08-14T10:54:35.014Z,100015.72
2022-08-14T10:57:11.500Z,100013.04
2022-08-14T10:59:55.728Z,100017.05
2022-08-14T11:02:44.952Z,100009.56
2022-08-14T11:05:18.813Z,100010.17
2022-08-14T11:07:55.426Z,100010.27
2022-08-14T11:10:27.632Z,100006.29
2022-08-14T11:12:56.600Z,100002.13
2022-08-14T11:15:28.146Z,99997.96
2022-08-14T11:17:56.043Z,99999.73
2022-08-14T11:20:31.321Z,99999.54
2022-08-14T11:23:00.839Z,99998.82
2022-08-14T11:25:36.748Z,99998.11
2022-08-14T11:28:19.054Z,99999.70
2022-08-14T11:30:53.806Z,99997.91
2022-08-14T11:33:24.296Z,99993.54
2022-08-14T11:35:51.274Z,99991.98
2022-08-14T11:38:19.622Z,99991.83
2022-08-14T11:40:47.655Z,99991.38
2022-08-14T11:43:15.835Z,99989.34
2022-08-14T11:45:50.055Z,99991.21
2022-08-14T11:49:01.990Z,99986.19
2022-08-14T11:51:20.495Z,99991.68
2022-08-14T11:54:08.310Z,99995.28
2022-08-14T11:56:39.267Z,99998.09
2022-08-14T11:59:10.195Z,99998.50
2022-08-14T12:01:41.017Z,99995.58
2022-08-14T12:04:32.333Z,99997.65
2022-08-14T12:06:57.259Z,99989.16
2022-08-14T12:09:31.501Z,99981.79
2022-08-14T12:11:59.156Z,99978.09
2022-08-14T12:14:30.903Z,99977.02
2022-08-14T12:17:12.748Z,99963.83
2022-08-14T12:19:45.770Z,99964.73
2022-08-14T12:22:29.842Z,99960.55
2022-08-14T12:24:57.426Z,99970.55
2022-08-14T12:27:53.478Z,99971.95
2022-08-14T12:30:37.648Z,99976.00
2022-08-14T12:33:30.947Z,99980.08
2022-08-14T12:36:04.493Z,99976.98
2022-08-14T12:38:43.718Z,99976.10
2022-08-14T12:41:16.443Z,99975.14
2022-08-14T12:43:51.231Z,99972.62
2022-08-14T12:46:33.478Z,99970.16
2022-08-14T12:49:10.030Z,99958.70
2022-08-14T12:51:37.697Z,99951.91
2022-08-14T12:54:28.257Z,99954.29
2022-08-14T12:57:08.791Z,99949.31
2022-08-14T12:59:42.568Z,99949.84
2022-08-14T13:02:29.473Z,99943.94
2022-08-14T13:04:57.326Z,99939.88
2022-08-14T13:07:27.135Z,99933.84
2022-08-14T13:10:29.659Z,99931.84
2022-08-14T13:13:12.353Z,99924.38
2022-08-14T13:15:40.175Z,99915.11
2022-08-14T13:18:18.330Z,99909.48
2022-08-14T13:20:49.405Z,99900.77
2022-08-14T13:23:19.511Z,99899.70
2022-08-14T13:25:58.692Z,99885.92
2022-08-14T13:28:32.629Z,99887.46
2022-08-14T13:31:04.152Z,99889.65
2022-08-14T13:33:40.816Z,99882.83
2022-08-14T13:36:09.834Z,99884.16
2022-08-14T13:38:43.112Z,99886.67
2022-08-14T13:41:10.871Z,99890.45
2022-08-14T13:43:59.503Z,99885.29
2022-08-14T13:46:27.969Z,99888.16
2022-08-14T13:48:57.342Z,99893.53
2022-08-14T13:51:35.115Z,99885.94
2022-08-14T13:54:10.730Z,99891.31
2022-08-14T13:56:40.773Z,99883.38
2022-08-14T13:59:09.498Z,99885.90
2022-08-14T14:01:43.675Z,99885.54
2022-08-14T14:04:18.155Z,99891.58
2022-08-14T14:06:49.530Z,99889.33
2022-08-14T14:09:26.190Z,99882.98
2022-08-14T14:12:00.627Z,99879.59
2022-08-14T14:14:44.851Z,99870.17
2022-08-14T14:17:14.535Z,99863.68
2022-08-14T14:19:46.275Z,99867.06
2022-08-14T14:22:36.098Z,99862.45
2022-08-14T14:25:04.619Z,99860.30
2022-08-14T14:27:41.507Z,99860.30
2022-08-14T14:30:29.401Z,99861.93
2022-08-14T14:33:05.181Z,99851.83
2022-08-14T14:35:39.778Z,99847.11
2022-08-14T14:38:08.485Z,99850.61
2022-08-14T14:40:53.368Z,99853.14
2022-08-14T14:43:27.658Z,99849.92
2022-08-14T14:45:55.086Z,99851.52
2022-08-14T14:48:23.085Z,99859.46
2022-08-14T14:50:58.927Z,99860.91
2022-08-14T14:53:27.038Z,99862.98
2022-08-14T14:56:49.867Z,99864.83
2022-08-14T14:58:43.211Z,99872.40
2022-08-14T15:01:17.996Z,99871.88
2022-08-14T15:03:45.936Z,99868.91
2022-08-14T15:06:12.774Z,99873.02
2022-08-14T15:08:56.333Z,99865.98
2022-08-14T15:11:30.469Z,99871.90
2022-08-14T15:14:00.296Z,99878.63
2022-08-14T15:16:27.999Z,99880.05
2022-08-14T15:18:54.807Z,99878.21
2022-08-14T15:21:21.359Z,99885.09
2022-08-14T15:23:50.234Z,99886.73
2022-08-14T15:26:23.982Z,99884.42
2022-08-14T15:29:05.861Z,99880.86
2022-08-14T15:31:36.228Z,99874.58
2022-08-14T15:34:43.644Z,99868.77
2022-08-14T15:36:58.825Z,99870.80
2022-08-14T15:39:25.998Z,99880.99
2022-08-14T15:42:00.409Z,99880.50
2022-08-14T15:44:34.001Z,99882.84
2022-08-14T15:47:06.242Z,99883.38
2022-08-14T15:49:34.844Z,99879.25
2022-08-14T15:52:03.827Z,99874.42
2022-08-14T15:54:31.554Z,99875.15
2022-08-14T15:57:00.944Z,99881.09
2022-08-14T15:59:48.176Z,99884.05
2022-08-14T16:02:16.651Z,99882.20
2022-08-14T16:04:45.456Z,99882.50
2022-08-14T16:07:17.476Z,99884.66
2022-08-14T16:09:46.893Z,99877.77
2022-08-14T16:12:13.362Z,99873.02
2022-08-14T16:14:45.469Z,99867.73
2022-08-14T16:17:13.532Z,99858.09
2022-08-14T16:19:45.390Z,99860.71
2022-08-14T16:23:10.618Z,99863.67
2022-08-14T16:25:03.761Z,99864.48
2022-08-14T16:27:38.778Z,99864.05
2022-08-14T16:30:25.157Z,99862.52
2022-08-14T16:33:04.290Z,99856.95
2022-08-14T16:35:42.765Z,99854.21
2022-08-14T16:38:46.062Z,99849.94
2022-08-14T16:41:17.816Z,99847.41
2022-08-14T16:43:45.439Z,99845.63
2022-08-14T16:46:22.539Z,99840.59
2022-08-14T16:48:56.975Z,99831.21
2022-08-14T16:51:28.437Z,99824.45
2022-08-14T16:53:58.485Z,99814.95
2022-08-14T16:56:30.680Z,99811.92
2022-08-14T16:59:09.737Z,99815.16
2022-08-14T17:01:44.493Z,99814.19
2022-08-14T17:04:25.069Z,99812.73
2022-08-14T17:06:57.909Z,99810.30
2022-08-14T17:09:44.452Z,99810.91
2022-08-14T17:12:34.080Z,99809.42
2022-08-14T17:15:09.939Z,99810.30
2022-08-14T17:17:58.373Z,99819.36
2022-08-14T17:20:53.161Z,99825.29
2022-08-14T17:23:13.724Z,99834.92
2022-08-14T17:25:51.056Z,99834.94
2022-08-14T17:28:51.771Z,99839.04
2022-08-14T17:31:10.260Z,99841.45
2022-08-14T17:33:40.976Z,99843.50
2022-08-14T17:36:20.902Z,99842.17
2022-08-14T17:39:14.466Z,99840.02
2022-08-14T17:44:45.776Z,99827.06
2022-08-14T17:47:18.024Z,99834.26
2022-08-14T17:49:51.712Z,99843.91
2022-08-14T17:52:34.713Z,99851.02
2022-08-14T17:55:06.663Z,99849.84
2022-08-14T17:57:35.226Z,99853.26
2022-08-14T18:00:12.394Z,99850.83
2022-08-14T18:02:40.777Z,99849.63
2022-08-14T18:05:23.341Z,99852.17
2022-08-14T18:08:31.357Z,99873.68
2022-08-14T18:10:55.845Z,99876.61
2022-08-14T18:13:50.103Z,99884.42
2022-08-14T18:16:20.096Z,99887.08
2022-08-14T18:18:49.406Z,99881.77
2022-08-14T18:21:39.689Z,99890.88
2022-08-14T18:24:04.450Z,99885.78
2022-08-14T18:27:01.738Z,99894.55
2022-08-14T18:29:31.740Z,99894.08
2022-08-14T18:31:59.207Z,99872.27
2022-08-14T18:34:38.003Z,99858.63
2022-08-14T18:37:21.762Z,99850.17
2022-08-14T18:40:03.193Z,99846.17
2022-08-14T18:42:32.191Z,99844.64
2022-08-14T18:45:12.769Z,99842.37
2022-08-14T18:48:14.249Z,99837.64
2022-08-14T18:50:47.279Z,99835.02
2022-08-14T18:53:17.566Z,99833.02
2022-08-14T18:55:54.703Z,99827.95
2022-08-14T18:58:56.865Z,99831.23
2022-08-14T19:01:30.382Z,99832.34
2022-08-14T19:04:01.007Z,99829.90
2022-08-14T19:06:50.125Z,99823.42
2022-08-14T19:10:01.057Z,99817.21
2022-08-14T19:13:00.597Z,99814.67
2022-08-14T19:15:43.517Z,99812.52
2022-08-14T19:18:28.152Z,99809.32
2022-08-14T19:21:00.109Z,99805.21
2022-08-14T19:23:43.890Z,99799.26
2022-08-14T19:26:35.462Z,99794.84
2022-08-14T19:29:37.600Z,99791.45
2022-08-14T19:32:40.215Z,99794.05
2022-08-14T19:35:22.935Z,99796.50
2022-08-14T19:37:55.371Z,99793.21
2022-08-14T19:40:40.313Z,99788.85
2022-08-14T19:43:10.671Z,99786.27
2022-08-14T19:45:39.275Z,99789.65
2022-08-14T19:48:15.861Z,99794.55
2022-08-14T19:50:46.788Z,99794.77
2022-08-14T19:53:17.793Z,99795.33
2022-08-14T19:56:04.931Z,99789.09
2022-08-14T19:58:57.387Z,99786.33
2022-08-14T20:01:36.541Z,99783.82
2022-08-14T20:04:22.930Z,99783.72
2022-08-14T20:06:57.809Z,99785.02
2022-08-14T20:11:03.431Z,99781.23
2022-08-14T20:12:35.530Z,99777.27
2022-08-14T20:15:15.433Z,99771.89
2022-08-14T20:17:52.344Z,99767.48
2022-08-14T20:20:32.449Z,99766.17
2022-08-14T20:23:11.445Z,99764.67
2022-08-14T20:25:56.688Z,99758.58
2022-08-14T20:28:32.990Z,99757.32
2022-08-14T20:31:22.152Z,99754.45
2022-08-14T20:34:24.967Z,99748.33
2022-08-14T20:37:22.878Z,99749.91
2022-08-14T20:39:54.407Z,99754.41
2022-08-14T20:42:43.765Z,99752.65
2022-08-14T20:45:24.800Z,99748.65
2022-08-14T20:48:02.491Z,99752.20
2022-08-14T20:50:44.844Z,99748.44
2022-08-14T20:53:27.193Z,99755.31
2022-08-14T20:56:00.558Z,99752.99
2022-08-14T20:58:41.887Z,99758.39
2022-08-14T21:01:32.679Z,99756.91
2022-08-14T21:04:11.875Z,99761.49
2022-08-14T21:07:23.035Z,99767.14
2022-08-14T21:10:05.033Z,99769.55
2022-08-14T21:12:34.208Z,99774.86
2022-08-14T21:15:10.032Z,99777.30
2022-08-14T21:17:41.527Z,99780.77
2022-08-14T21:20:25.870Z,99779.17
2022-08-14T21:23:00.615Z,99786.53
2022-08-14T21:25:32.229Z,99791.84
2022-08-14T21:28:05.017Z,99799.88
2022-08-14T21:30:51.699Z,99797.64
2022-08-14T21:33:29.236Z,99801.18
2022-08-14T21:36:07.742Z,99797.59
2022-08-14T21:38:38.209Z,99792.47
2022-08-14T21:41:42.711Z,99789.86
2022-08-14T21:44:17.858Z,99781.23
2022-08-14T21:47:10.172Z,99779.57
2022-08-14T21:49:43.138Z,99785.05
2022-08-14T21:52:51.417Z,99776.92
2022-08-14T21:55:12.457Z,99775.33
2022-08-14T21:58:45.745Z,99770.79
2022-08-14T22:00:42.248Z,99758.91
2022-08-14T22:03:17.429Z,99754.36
2022-08-14T22:05:50.020Z,99750.41
2022-08-14T22:08:27.042Z,99744.63
2022-08-14T22:10:56.693Z,99749.43
2022-08-14T22:13:32.370Z,99752.77
2022-08-14T22:16:01.939Z,99752.59
2022-08-14T22:18:31.079Z,99747.67
2022-08-14T22:21:00.759Z,99741.08
2022-08-14T22:23:35.778Z,99740.80
2022-08-14T22:26:06.794Z,99740.20
2022-08-14T22:28:34.767Z,99742.61
2022-08-14T22:31:10.325Z,99740.52
2022-08-14T22:33:40.614Z,99741.38
2022-08-14T22:36:41.944Z,99733.67
2022-08-14T22:40:17.611Z,99737.89
2022-08-14T22:42:23.026Z,99734.16
2022-08-14T22:44:56.514Z,99739.10
2022-08-14T22:47:26.211Z,99740.41
2022-08-14T22:50:29.201Z,99743.23
2022-08-14T22:52:59.540Z,99740.49
2022-08-14T22:55:28.757Z,99744.65
2022-08-14T22:57:56.979Z,99749.36
2022-08-14T23:00:30.227Z,99753.37
2022-08-14T23:03:01.956Z,99753.63
2022-08-14T23:05:39.628Z,99757.59
2022-08-14T23:08:59.796Z,99756.63
2022-08-14T23:11:10.686Z,99755.13
2022-08-14T23:13:43.626Z,99762.20
2022-08-14T23:16:19.995Z,99761.21
2022-08-14T23:18:54.218Z,99757.62
2022-08-14T23:21:25.026Z,99756.48
2022-08-14T23:23:56.039Z,99757.60
2022-08-14T23:26:48.124Z,99760.08
2022-08-14T23:29:18.836Z,99762.65
2022-08-14T23:31:48.851Z,99761.68
2022-08-14T23:34:21.367Z,99757.26
2022-08-14T23:36:55.661Z,99758.15
2022-08-14T23:39:31.739Z,99756.91
2022-08-14T23:42:07.566Z,99754.81
2022-08-14T23:44:38.862Z,99754.82
2022-08-14T23:47:12.031Z,99748.92
2022-08-14T23:50:04.139Z,99747.13
2022-08-14T23:52:51.605Z,99744.46
2022-08-14T23:55:33.622Z,99743.42
2022-08-14T23:58:01.580Z,99739.08
